Barking Sands Airport Kekaha US
ICAO: PHBK
IATA:
Category: Medium
Scheduled Services:

Elevation: 23 ft
TransAlt. 18000 ft.

Airport Communications:
HONOLULU CNTR:126.5
RANGE OUTRIDER:32.285
TWR:126.2
UNICOM:122.8

PHBK Zoom In..

If you have problems with the map follow the link
https://www.worldairports.se/pages/airport.php?
ICAO=PHBK

Runways:

(A) RW 16 length 6002 ft width 146 ft
---- / hdg 160

(B) RW 34 length 6002 ft width 146 ft
---- / hdg 340

Location; PHBK
Day. 18 / Time. 02.03 Zulu
* Altimeter: 29.96
* Temperature: 22° c. 71.6°f.
* Wind from: 020° Speed 17 kn with Gusts up to 27 kn.
Dewpoint: 19° c.
Visibility: 4 Statute Miles.
Clouds: Few 2300 ft.
Clouds: Broken 3200 ft.
Clouds: Broken 4400 ft.
Conditions: Light Rain.Conditions: Mist.

PHBK 180203Z AUTO 02017G27KT 4SM -RA BR FEW023 BKN032 BKN044 22/19 A2996 RMK AO2 P0000 T02170194


Wind From 020°
Speed 17 kn.

 
 
jpsmedia.com for Web Design worldairports.se 2019   terms of use